sensor_id;sensor_type;location;lat;lon;timestamp;P1;durP1;ratioP1;P2;durP2;ratioP2
76059;SDS011;64759;52.220;5.170;2023-04-27T00:02:07;20.02;;;10.38;;
76059;SDS011;64759;52.220;5.170;2023-04-27T00:04:32;16.67;;;9.60;;
76059;SDS011;64759;52.220;5.170;2023-04-27T00:06:57;16.85;;;8.40;;
76059;SDS011;64759;52.220;5.170;2023-04-27T00:09:23;17.48;;;9.60;;
76059;SDS011;64759;52.220;5.170;2023-04-27T00:11:48;13.90;;;9.00;;
76059;SDS011;64759;52.220;5.170;2023-04-27T00:14:14;16.23;;;8.23;;
76059;SDS011;64759;52.220;5.170;2023-04-27T00:16:39;19.35;;;9.20;;
76059;SDS011;64759;52.220;5.170;2023-04-27T00:19:05;14.27;;;8.07;;
76059;SDS011;64759;52.220;5.170;2023-04-27T00:21:31;19.25;;;8.30;;
76059;SDS011;64759;52.220;5.170;2023-04-27T00:23:56;13.05;;;7.22;;
76059;SDS011;64759;52.220;5.170;2023-04-27T00:26:21;17.48;;;8.20;;
76059;SDS011;64759;52.220;5.170;2023-04-27T00:28:49;13.35;;;6.82;;
76059;SDS011;64759;52.220;5.170;2023-04-27T00:31:15;9.57;;;7.07;;
76059;SDS011;64759;52.220;5.170;2023-04-27T00:33:40;14.98;;;7.22;;
76059;SDS011;64759;52.220;5.170;2023-04-27T00:36:06;13.82;;;7.00;;
76059;SDS011;64759;52.220;5.170;2023-04-27T00:38:32;10.77;;;6.55;;
76059;SDS011;64759;52.220;5.170;2023-04-27T00:41:05;14.13;;;7.15;;
76059;SDS011;64759;52.220;5.170;2023-04-27T00:43:31;11.05;;;6.70;;
76059;SDS011;64759;52.220;5.170;2023-04-27T00:45:58;10.68;;;6.88;;
76059;SDS011;64759;52.220;5.170;2023-04-27T00:48:24;14.25;;;7.15;;
76059;SDS011;64759;52.220;5.170;2023-04-27T00:50:50;13.55;;;6.80;;
76059;SDS011;64759;52.220;5.170;2023-04-27T00:53:16;14.00;;;7.35;;
76059;SDS011;64759;52.220;5.170;2023-04-27T00:55:42;16.50;;;6.32;;
76059;SDS011;64759;52.220;5.170;2023-04-27T00:58:07;16.35;;;6.63;;
76059;SDS011;64759;52.220;5.170;2023-04-27T01:00:36;12.40;;;7.93;;
76059;SDS011;64759;52.220;5.170;2023-04-27T01:03:03;12.63;;;6.82;;
76059;SDS011;64759;52.220;5.170;2023-04-27T01:05:29;12.25;;;7.07;;
76059;SDS011;64759;52.220;5.170;2023-04-27T01:07:54;14.38;;;6.70;;
76059;SDS011;64759;52.220;5.170;2023-04-27T01:10:20;12.27;;;7.25;;
76059;SDS011;64759;52.220;5.170;2023-04-27T01:12:45;11.98;;;6.90;;
76059;SDS011;64759;52.220;5.170;2023-04-27T01:15:11;13.05;;;7.60;;
76059;SDS011;64759;52.220;5.170;2023-04-27T01:17:37;8.88;;;6.25;;
76059;SDS011;64759;52.220;5.170;2023-04-27T01:20:04;11.55;;;7.00;;
76059;SDS011;64759;52.220;5.170;2023-04-27T01:22:34;11.18;;;7.45;;
76059;SDS011;64759;52.220;5.170;2023-04-27T01:25:00;11.10;;;7.65;;
76059;SDS011;64759;52.220;5.170;2023-04-27T01:27:25;14.10;;;8.02;;
76059;SDS011;64759;52.220;5.170;2023-04-27T01:29:51;13.20;;;7.90;;
76059;SDS011;64759;52.220;5.170;2023-04-27T01:32:18;11.38;;;7.28;;
76059;SDS011;64759;52.220;5.170;2023-04-27T01:34:43;11.05;;;8.25;;
76059;SDS011;64759;52.220;5.170;2023-04-27T01:37:09;10.40;;;7.63;;
76059;SDS011;64759;52.220;5.170;2023-04-27T01:39:35;9.82;;;7.40;;
76059;SDS011;64759;52.220;5.170;2023-04-27T01:42:00;12.75;;;7.15;;
76059;SDS011;64759;52.220;5.170;2023-04-27T01:44:27;10.48;;;7.45;;
76059;SDS011;64759;52.220;5.170;2023-04-27T01:46:53;15.98;;;8.18;;
76059;SDS011;64759;52.220;5.170;2023-04-27T01:49:20;11.18;;;6.93;;
76059;SDS011;64759;52.220;5.170;2023-04-27T01:51:45;17.95;;;7.93;;
76059;SDS011;64759;52.220;5.170;2023-04-27T01:54:11;14.70;;;8.02;;
76059;SDS011;64759;52.220;5.170;2023-04-27T01:56:37;13.85;;;8.18;;
76059;SDS011;64759;52.220;5.170;2023-04-27T01:59:03;18.95;;;8.25;;
76059;SDS011;64759;52.220;5.170;2023-04-27T02:01:28;11.25;;;7.75;;
76059;SDS011;64759;52.220;5.170;2023-04-27T02:03:56;13.18;;;7.85;;
76059;SDS011;64759;52.220;5.170;2023-04-27T02:06:21;19.45;;;8.95;;
76059;SDS011;64759;52.220;5.170;2023-04-27T02:08:46;16.27;;;8.98;;
76059;SDS011;64759;52.220;5.170;2023-04-27T02:11:13;14.80;;;8.23;;
76059;SDS011;64759;52.220;5.170;2023-04-27T02:13:39;14.05;;;8.60;;
76059;SDS011;64759;52.220;5.170;2023-04-27T02:16:05;13.45;;;8.23;;
76059;SDS011;64759;52.220;5.170;2023-04-27T02:18:31;16.15;;;8.48;;
76059;SDS011;64759;52.220;5.170;2023-04-27T02:20:57;13.73;;;7.20;;
76059;SDS011;64759;52.220;5.170;2023-04-27T02:23:23;10.32;;;6.30;;
76059;SDS011;64759;52.220;5.170;2023-04-27T02:25:52;13.40;;;7.10;;
76059;SDS011;64759;52.220;5.170;2023-04-27T02:28:18;11.25;;;5.75;;
76059;SDS011;64759;52.220;5.170;2023-04-27T02:30:44;15.30;;;6.22;;
76059;SDS011;64759;52.220;5.170;2023-04-27T02:33:11;13.93;;;6.80;;
76059;SDS011;64759;52.220;5.170;2023-04-27T02:35:37;9.93;;;5.75;;
76059;SDS011;64759;52.220;5.170;2023-04-27T02:38:02;11.50;;;6.72;;
76059;SDS011;64759;52.220;5.170;2023-04-27T02:40:27;9.32;;;6.50;;
76059;SDS011;64759;52.220;5.170;2023-04-27T02:42:53;15.75;;;6.65;;
76059;SDS011;64759;52.220;5.170;2023-04-27T02:45:18;9.88;;;5.90;;
76059;SDS011;64759;52.220;5.170;2023-04-27T02:47:44;8.88;;;5.70;;
76059;SDS011;64759;52.220;5.170;2023-04-27T02:50:12;9.35;;;5.82;;
76059;SDS011;64759;52.220;5.170;2023-04-27T02:52:37;13.60;;;6.00;;
76059;SDS011;64759;52.220;5.170;2023-04-27T02:55:03;8.38;;;5.72;;
76059;SDS011;64759;52.220;5.170;2023-04-27T02:57:29;12.43;;;5.95;;
76059;SDS011;64759;52.220;5.170;2023-04-27T02:59:55;10.38;;;5.50;;
76059;SDS011;64759;52.220;5.170;2023-04-27T03:02:20;11.63;;;5.20;;
76059;SDS011;64759;52.220;5.170;2023-04-27T03:04:46;7.80;;;4.72;;
76059;SDS011;64759;52.220;5.170;2023-04-27T03:07:11;6.28;;;5.13;;
76059;SDS011;64759;52.220;5.170;2023-04-27T03:09:36;11.30;;;5.63;;
76059;SDS011;64759;52.220;5.170;2023-04-27T03:12:02;11.70;;;5.07;;
76059;SDS011;64759;52.220;5.170;2023-04-27T03:14:29;12.60;;;4.82;;
76059;SDS011;64759;52.220;5.170;2023-04-27T03:16:56;10.30;;;4.57;;
76059;SDS011;64759;52.220;5.170;2023-04-27T03:19:21;10.93;;;4.78;;
76059;SDS011;64759;52.220;5.170;2023-04-27T03:21:48;11.18;;;5.15;;
76059;SDS011;64759;52.220;5.170;2023-04-27T03:24:14;10.80;;;4.65;;
76059;SDS011;64759;52.220;5.170;2023-04-27T03:26:41;10.65;;;4.95;;
76059;SDS011;64759;52.220;5.170;2023-04-27T03:29:06;7.35;;;3.90;;
76059;SDS011;64759;52.220;5.170;2023-04-27T03:31:32;8.85;;;4.95;;
76059;SDS011;64759;52.220;5.170;2023-04-27T03:33:57;12.90;;;4.55;;
76059;SDS011;64759;52.220;5.170;2023-04-27T03:36:22;9.07;;;4.30;;
76059;SDS011;64759;52.220;5.170;2023-04-27T03:38:48;9.90;;;5.10;;
76059;SDS011;64759;52.220;5.170;2023-04-27T03:41:13;9.85;;;5.00;;
76059;SDS011;64759;52.220;5.170;2023-04-27T03:43:40;8.70;;;5.18;;
76059;SDS011;64759;52.220;5.170;2023-04-27T03:46:05;10.38;;;4.85;;
76059;SDS011;64759;52.220;5.170;2023-04-27T03:48:31;7.60;;;4.70;;
76059;SDS011;64759;52.220;5.170;2023-04-27T03:50:56;10.05;;;5.50;;
76059;SDS011;64759;52.220;5.170;2023-04-27T03:53:22;9.98;;;5.03;;
76059;SDS011;64759;52.220;5.170;2023-04-27T03:55:48;14.30;;;5.57;;
76059;SDS011;64759;52.220;5.170;2023-04-27T03:58:15;8.65;;;5.13;;
76059;SDS011;64759;52.220;5.170;2023-04-27T04:01:10;11.88;;;5.22;;
76059;SDS011;64759;52.220;5.170;2023-04-27T04:03:36;10.18;;;5.32;;
76059;SDS011;64759;52.220;5.170;2023-04-27T04:06:04;9.75;;;5.50;;
76059;SDS011;64759;52.220;5.170;2023-04-27T04:08:30;12.05;;;5.95;;
76059;SDS011;64759;52.220;5.170;2023-04-27T04:10:59;8.98;;;5.57;;
76059;SDS011;64759;52.220;5.170;2023-04-27T04:13:25;11.35;;;5.50;;
76059;SDS011;64759;52.220;5.170;2023-04-27T04:18:27;7.40;;;4.45;;
76059;SDS011;64759;52.220;5.170;2023-04-27T04:20:52;9.93;;;6.00;;
76059;SDS011;64759;52.220;5.170;2023-04-27T04:23:17;8.25;;;5.45;;
76059;SDS011;64759;52.220;5.170;2023-04-27T04:25:44;9.00;;;5.53;;
76059;SDS011;64759;52.220;5.170;2023-04-27T04:28:12;13.00;;;5.47;;
76059;SDS011;64759;52.220;5.170;2023-04-27T04:30:37;9.05;;;5.03;;
76059;SDS011;64759;52.220;5.170;2023-04-27T04:33:03;8.27;;;5.43;;
76059;SDS011;64759;52.220;5.170;2023-04-27T04:35:29;8.45;;;4.82;;
76059;SDS011;64759;52.220;5.170;2023-04-27T04:37:57;11.10;;;5.22;;
76059;SDS011;64759;52.220;5.170;2023-04-27T04:40:23;9.57;;;4.95;;
76059;SDS011;64759;52.220;5.170;2023-04-27T04:42:49;10.50;;;4.80;;
76059;SDS011;64759;52.220;5.170;2023-04-27T04:45:15;14.23;;;5.30;;
76059;SDS011;64759;52.220;5.170;2023-04-27T04:47:40;9.27;;;5.20;;
76059;SDS011;64759;52.220;5.170;2023-04-27T04:50:06;10.50;;;4.90;;
76059;SDS011;64759;52.220;5.170;2023-04-27T04:52:33;11.23;;;4.82;;
76059;SDS011;64759;52.220;5.170;2023-04-27T04:55:01;8.30;;;4.20;;
76059;SDS011;64759;52.220;5.170;2023-04-27T04:57:28;9.35;;;5.05;;
76059;SDS011;64759;52.220;5.170;2023-04-27T04:59:54;8.38;;;4.68;;
76059;SDS011;64759;52.220;5.170;2023-04-27T05:02:20;6.90;;;4.75;;
76059;SDS011;64759;52.220;5.170;2023-04-27T05:04:46;10.85;;;5.18;;
76059;SDS011;64759;52.220;5.170;2023-04-27T05:07:13;10.18;;;4.75;;
76059;SDS011;64759;52.220;5.170;2023-04-27T05:09:39;9.73;;;5.63;;
76059;SDS011;64759;52.220;5.170;2023-04-27T05:12:04;15.80;;;5.55;;
76059;SDS011;64759;52.220;5.170;2023-04-27T05:14:31;12.13;;;4.60;;
76059;SDS011;64759;52.220;5.170;2023-04-27T05:16:56;9.30;;;5.05;;
76059;SDS011;64759;52.220;5.170;2023-04-27T05:19:22;6.45;;;4.28;;
76059;SDS011;64759;52.220;5.170;2023-04-27T05:21:48;15.65;;;5.47;;
76059;SDS011;64759;52.220;5.170;2023-04-27T05:24:14;11.10;;;5.18;;
76059;SDS011;64759;52.220;5.170;2023-04-27T05:26:41;9.93;;;4.50;;
76059;SDS011;64759;52.220;5.170;2023-04-27T05:29:07;13.82;;;5.57;;
76059;SDS011;64759;52.220;5.170;2023-04-27T05:31:33;11.38;;;5.25;;
76059;SDS011;64759;52.220;5.170;2023-04-27T05:33:59;13.40;;;5.13;;
76059;SDS011;64759;52.220;5.170;2023-04-27T05:36:25;10.65;;;5.07;;
76059;SDS011;64759;52.220;5.170;2023-04-27T05:38:53;12.50;;;5.25;;
76059;SDS011;64759;52.220;5.170;2023-04-27T05:41:19;9.98;;;5.30;;
76059;SDS011;64759;52.220;5.170;2023-04-27T05:43:48;14.07;;;5.25;;
76059;SDS011;64759;52.220;5.170;2023-04-27T05:46:13;8.13;;;4.65;;
76059;SDS011;64759;52.220;5.170;2023-04-27T05:48:39;12.25;;;4.90;;
76059;SDS011;64759;52.220;5.170;2023-04-27T05:51:06;12.48;;;4.43;;
76059;SDS011;64759;52.220;5.170;2023-04-27T05:53:33;12.40;;;4.57;;
76059;SDS011;64759;52.220;5.170;2023-04-27T05:55:59;9.23;;;4.93;;
76059;SDS011;64759;52.220;5.170;2023-04-27T05:58:25;10.40;;;4.90;;
76059;SDS011;64759;52.220;5.170;2023-04-27T06:00:53;14.25;;;4.63;;
76059;SDS011;64759;52.220;5.170;2023-04-27T06:03:18;11.98;;;4.85;;
76059;SDS011;64759;52.220;5.170;2023-04-27T06:05:44;7.82;;;5.10;;
76059;SDS011;64759;52.220;5.170;2023-04-27T06:08:09;7.72;;;4.40;;
76059;SDS011;64759;52.220;5.170;2023-04-27T06:10:36;10.93;;;4.45;;
76059;SDS011;64759;52.220;5.170;2023-04-27T06:13:02;8.85;;;4.35;;
76059;SDS011;64759;52.220;5.170;2023-04-27T06:15:28;7.35;;;4.28;;
76059;SDS011;64759;52.220;5.170;2023-04-27T06:17:53;7.13;;;3.78;;
76059;SDS011;64759;52.220;5.170;2023-04-27T06:20:18;9.93;;;4.28;;
76059;SDS011;64759;52.220;5.170;2023-04-27T06:22:44;13.05;;;4.43;;
76059;SDS011;64759;52.220;5.170;2023-04-27T06:25:11;13.10;;;4.15;;
76059;SDS011;64759;52.220;5.170;2023-04-27T06:27:36;7.07;;;3.47;;
76059;SDS011;64759;52.220;5.170;2023-04-27T06:30:02;10.43;;;4.22;;
76059;SDS011;64759;52.220;5.170;2023-04-27T06:32:29;9.02;;;3.67;;
76059;SDS011;64759;52.220;5.170;2023-04-27T06:34:55;7.00;;;3.70;;
76059;SDS011;64759;52.220;5.170;2023-04-27T06:37:20;8.30;;;3.30;;
76059;SDS011;64759;52.220;5.170;2023-04-27T06:39:46;16.52;;;3.45;;
76059;SDS011;64759;52.220;5.170;2023-04-27T06:42:12;6.53;;;2.75;;
76059;SDS011;64759;52.220;5.170;2023-04-27T06:44:37;7.38;;;2.60;;
76059;SDS011;64759;52.220;5.170;2023-04-27T06:47:03;6.20;;;3.08;;
76059;SDS011;64759;52.220;5.170;2023-04-27T06:49:29;6.90;;;2.95;;
76059;SDS011;64759;52.220;5.170;2023-04-27T06:51:55;5.55;;;2.72;;
76059;SDS011;64759;52.220;5.170;2023-04-27T06:54:21;6.80;;;2.80;;
76059;SDS011;64759;52.220;5.170;2023-04-27T06:56:46;8.15;;;2.72;;
76059;SDS011;64759;52.220;5.170;2023-04-27T06:59:12;10.85;;;3.03;;
76059;SDS011;64759;52.220;5.170;2023-04-27T07:01:37;5.55;;;2.30;;
76059;SDS011;64759;52.220;5.170;2023-04-27T07:04:03;6.28;;;2.05;;
76059;SDS011;64759;52.220;5.170;2023-04-27T07:06:29;8.10;;;2.35;;
76059;SDS011;64759;52.220;5.170;2023-04-27T07:08:56;4.75;;;2.20;;
76059;SDS011;64759;52.220;5.170;2023-04-27T07:11:22;3.40;;;2.13;;
76059;SDS011;64759;52.220;5.170;2023-04-27T07:13:47;5.93;;;1.80;;
76059;SDS011;64759;52.220;5.170;2023-04-27T07:16:14;6.00;;;1.75;;
76059;SDS011;64759;52.220;5.170;2023-04-27T07:18:41;6.10;;;2.17;;
76059;SDS011;64759;52.220;5.170;2023-04-27T07:21:06;6.05;;;1.55;;
76059;SDS011;64759;52.220;5.170;2023-04-27T07:23:34;8.73;;;2.78;;
76059;SDS011;64759;52.220;5.170;2023-04-27T07:26:00;5.30;;;2.47;;
76059;SDS011;64759;52.220;5.170;2023-04-27T07:28:26;7.78;;;2.15;;
76059;SDS011;64759;52.220;5.170;2023-04-27T07:30:52;6.75;;;2.15;;
76059;SDS011;64759;52.220;5.170;2023-04-27T07:33:20;7.93;;;1.60;;
76059;SDS011;64759;52.220;5.170;2023-04-27T07:35:46;6.47;;;1.85;;
76059;SDS011;64759;52.220;5.170;2023-04-27T07:38:12;6.15;;;1.58;;
76059;SDS011;64759;52.220;5.170;2023-04-27T07:40:37;5.10;;;1.50;;
76059;SDS011;64759;52.220;5.170;2023-04-27T07:43:05;10.05;;;1.45;;
76059;SDS011;64759;52.220;5.170;2023-04-27T07:45:30;4.10;;;1.55;;
76059;SDS011;64759;52.220;5.170;2023-04-27T07:47:57;5.88;;;1.40;;
76059;SDS011;64759;52.220;5.170;2023-04-27T07:50:24;7.65;;;2.22;;
76059;SDS011;64759;52.220;5.170;2023-04-27T07:52:51;3.30;;;1.70;;
76059;SDS011;64759;52.220;5.170;2023-04-27T07:55:18;5.20;;;1.67;;
76059;SDS011;64759;52.220;5.170;2023-04-27T07:57:43;2.90;;;1.50;;
76059;SDS011;64759;52.220;5.170;2023-04-27T08:00:09;6.95;;;2.00;;
76059;SDS011;64759;52.220;5.170;2023-04-27T08:02:37;4.43;;;1.40;;
76059;SDS011;64759;52.220;5.170;2023-04-27T08:05:03;4.95;;;1.35;;
76059;SDS011;64759;52.220;5.170;2023-04-27T08:07:29;5.03;;;1.33;;
76059;SDS011;64759;52.220;5.170;2023-04-27T08:09:56;3.63;;;1.75;;
76059;SDS011;64759;52.220;5.170;2023-04-27T08:12:21;2.70;;;1.30;;
76059;SDS011;64759;52.220;5.170;2023-04-27T08:14:47;5.15;;;1.65;;
76059;SDS011;64759;52.220;5.170;2023-04-27T08:17:12;2.67;;;1.30;;
76059;SDS011;64759;52.220;5.170;2023-04-27T08:19:38;4.78;;;1.67;;
76059;SDS011;64759;52.220;5.170;2023-04-27T08:22:05;2.42;;;1.40;;
76059;SDS011;64759;52.220;5.170;2023-04-27T08:24:30;4.90;;;1.75;;
76059;SDS011;64759;52.220;5.170;2023-04-27T08:26:56;9.13;;;2.15;;
76059;SDS011;64759;52.220;5.170;2023-04-27T08:29:21;2.10;;;1.58;;
76059;SDS011;64759;52.220;5.170;2023-04-27T08:31:47;2.42;;;1.40;;
76059;SDS011;64759;52.220;5.170;2023-04-27T08:34:12;6.97;;;1.80;;
76059;SDS011;64759;52.220;5.170;2023-04-27T08:36:38;3.70;;;1.60;;
76059;SDS011;64759;52.220;5.170;2023-04-27T08:39:04;6.28;;;1.50;;
76059;SDS011;64759;52.220;5.170;2023-04-27T08:41:31;3.80;;;1.45;;
76059;SDS011;64759;52.220;5.170;2023-04-27T08:43:57;5.68;;;1.60;;
76059;SDS011;64759;52.220;5.170;2023-04-27T08:46:24;5.65;;;2.25;;
76059;SDS011;64759;52.220;5.170;2023-04-27T08:48:55;7.50;;;1.70;;
76059;SDS011;64759;52.220;5.170;2023-04-27T08:51:21;7.53;;;1.70;;
76059;SDS011;64759;52.220;5.170;2023-04-27T08:53:50;7.18;;;2.05;;
76059;SDS011;64759;52.220;5.170;2023-04-27T08:56:20;4.60;;;2.47;;
76059;SDS011;64759;52.220;5.170;2023-04-27T08:58:52;4.57;;;1.50;;
76059;SDS011;64759;52.220;5.170;2023-04-27T09:01:18;6.03;;;2.33;;
76059;SDS011;64759;52.220;5.170;2023-04-27T09:03:44;3.80;;;1.52;;
76059;SDS011;64759;52.220;5.170;2023-04-27T09:06:11;8.93;;;1.95;;
76059;SDS011;64759;52.220;5.170;2023-04-27T09:11:10;4.13;;;1.70;;
76059;SDS011;64759;52.220;5.170;2023-04-27T09:13:41;6.85;;;1.85;;
76059;SDS011;64759;52.220;5.170;2023-04-27T09:16:09;4.82;;;1.92;;
76059;SDS011;64759;52.220;5.170;2023-04-27T09:18:39;4.13;;;2.00;;
76059;SDS011;64759;52.220;5.170;2023-04-27T09:21:06;5.57;;;1.92;;
76059;SDS011;64759;52.220;5.170;2023-04-27T09:26:03;6.40;;;2.05;;
76059;SDS011;64759;52.220;5.170;2023-04-27T09:28:32;5.28;;;1.65;;
76059;SDS011;64759;52.220;5.170;2023-04-27T09:31:00;6.32;;;1.60;;
76059;SDS011;64759;52.220;5.170;2023-04-27T09:33:27;7.53;;;2.10;;
76059;SDS011;64759;52.220;5.170;2023-04-27T09:35:54;8.10;;;2.00;;
76059;SDS011;64759;52.220;5.170;2023-04-27T09:38:21;4.40;;;1.63;;
76059;SDS011;64759;52.220;5.170;2023-04-27T09:40:48;4.50;;;2.03;;
76059;SDS011;64759;52.220;5.170;2023-04-27T09:43:16;6.88;;;1.67;;
76059;SDS011;64759;52.220;5.170;2023-04-27T09:45:42;3.50;;;1.65;;
76059;SDS011;64759;52.220;5.170;2023-04-27T09:48:08;2.40;;;1.60;;
76059;SDS011;64759;52.220;5.170;2023-04-27T09:50:34;7.03;;;1.92;;
76059;SDS011;64759;52.220;5.170;2023-04-27T09:53:01;2.53;;;1.70;;
76059;SDS011;64759;52.220;5.170;2023-04-27T09:55:32;3.05;;;1.90;;
76059;SDS011;64759;52.220;5.170;2023-04-27T09:58:15;5.13;;;1.70;;
76059;SDS011;64759;52.220;5.170;2023-04-27T10:08:59;5.35;;;2.20;;
76059;SDS011;64759;52.220;5.170;2023-04-27T10:11:41;6.10;;;2.15;;
76059;SDS011;64759;52.220;5.170;2023-04-27T10:14:15;5.82;;;2.20;;
76059;SDS011;64759;52.220;5.170;2023-04-27T10:16:55;6.43;;;2.25;;
76059;SDS011;64759;52.220;5.170;2023-04-27T10:19:22;7.93;;;2.40;;
76059;SDS011;64759;52.220;5.170;2023-04-27T10:21:52;4.78;;;2.40;;
76059;SDS011;64759;52.220;5.170;2023-04-27T10:24:17;3.92;;;2.22;;
76059;SDS011;64759;52.220;5.170;2023-04-27T10:26:46;5.03;;;2.40;;
76059;SDS011;64759;52.220;5.170;2023-04-27T10:29:12;6.35;;;2.53;;
76059;SDS011;64759;52.220;5.170;2023-04-27T10:31:46;4.07;;;2.47;;
76059;SDS011;64759;52.220;5.170;2023-04-27T10:34:16;3.78;;;2.40;;
76059;SDS011;64759;52.220;5.170;2023-04-27T10:36:42;5.65;;;2.22;;
76059;SDS011;64759;52.220;5.170;2023-04-27T10:39:18;5.78;;;2.88;;
76059;SDS011;64759;52.220;5.170;2023-04-27T10:44:24;5.78;;;2.55;;
76059;SDS011;64759;52.220;5.170;2023-04-27T10:46:52;4.55;;;2.17;;
76059;SDS011;64759;52.220;5.170;2023-04-27T10:49:20;4.80;;;2.60;;
76059;SDS011;64759;52.220;5.170;2023-04-27T10:51:47;6.07;;;3.00;;
76059;SDS011;64759;52.220;5.170;2023-04-27T10:54:14;5.50;;;2.88;;
76059;SDS011;64759;52.220;5.170;2023-04-27T10:56:40;8.35;;;3.00;;
76059;SDS011;64759;52.220;5.170;2023-04-27T10:59:06;6.60;;;2.92;;
76059;SDS011;64759;52.220;5.170;2023-04-27T11:01:32;5.97;;;3.25;;
76059;SDS011;64759;52.220;5.170;2023-04-27T11:03:59;8.32;;;2.90;;
76059;SDS011;64759;52.220;5.170;2023-04-27T11:06:26;6.97;;;3.72;;
76059;SDS011;64759;52.220;5.170;2023-04-27T11:08:55;8.50;;;3.30;;
76059;SDS011;64759;52.220;5.170;2023-04-27T11:11:21;4.93;;;3.38;;
76059;SDS011;64759;52.220;5.170;2023-04-27T11:13:47;4.70;;;2.90;;
76059;SDS011;64759;52.220;5.170;2023-04-27T11:16:14;7.20;;;3.45;;
76059;SDS011;64759;52.220;5.170;2023-04-27T11:18:40;7.20;;;3.08;;
76059;SDS011;64759;52.220;5.170;2023-04-27T11:21:15;9.55;;;3.30;;
76059;SDS011;64759;52.220;5.170;2023-04-27T11:23:42;6.65;;;3.70;;
76059;SDS011;64759;52.220;5.170;2023-04-27T11:28:56;6.85;;;3.17;;
76059;SDS011;64759;52.220;5.170;2023-04-27T11:31:43;8.30;;;3.70;;
76059;SDS011;64759;52.220;5.170;2023-04-27T11:34:23;8.85;;;3.75;;
76059;SDS011;64759;52.220;5.170;2023-04-27T11:37:00;5.97;;;4.25;;
76059;SDS011;64759;52.220;5.170;2023-04-27T11:42:15;5.13;;;3.33;;
76059;SDS011;64759;52.220;5.170;2023-04-27T11:44:52;6.57;;;3.90;;
76059;SDS011;64759;52.220;5.170;2023-04-27T11:47:19;7.18;;;3.85;;
76059;SDS011;64759;52.220;5.170;2023-04-27T11:49:49;7.93;;;4.45;;
76059;SDS011;64759;52.220;5.170;2023-04-27T11:52:28;7.35;;;3.75;;
76059;SDS011;64759;52.220;5.170;2023-04-27T11:54:58;6.18;;;3.20;;
76059;SDS011;64759;52.220;5.170;2023-04-27T11:57:29;9.90;;;4.18;;
76059;SDS011;64759;52.220;5.170;2023-04-27T11:59:57;6.57;;;4.20;;
76059;SDS011;64759;52.220;5.170;2023-04-27T12:02:24;7.38;;;3.63;;
76059;SDS011;64759;52.220;5.170;2023-04-27T12:04:51;5.50;;;4.03;;
76059;SDS011;64759;52.220;5.170;2023-04-27T12:07:17;6.90;;;3.97;;
76059;SDS011;64759;52.220;5.170;2023-04-27T12:09:43;9.25;;;4.13;;
76059;SDS011;64759;52.220;5.170;2023-04-27T12:12:09;6.32;;;3.72;;
76059;SDS011;64759;52.220;5.170;2023-04-27T12:14:35;9.73;;;4.18;;
76059;SDS011;64759;52.220;5.170;2023-04-27T12:17:01;7.18;;;4.20;;
76059;SDS011;64759;52.220;5.170;2023-04-27T12:19:26;7.40;;;4.30;;
76059;SDS011;64759;52.220;5.170;2023-04-27T12:21:52;7.28;;;3.58;;
76059;SDS011;64759;52.220;5.170;2023-04-27T12:24:19;7.88;;;3.80;;
76059;SDS011;64759;52.220;5.170;2023-04-27T12:26:45;8.35;;;4.35;;
76059;SDS011;64759;52.220;5.170;2023-04-27T12:29:11;9.27;;;4.35;;
76059;SDS011;64759;52.220;5.170;2023-04-27T12:31:37;6.35;;;4.22;;
76059;SDS011;64759;52.220;5.170;2023-04-27T12:34:02;8.77;;;4.60;;
76059;SDS011;64759;52.220;5.170;2023-04-27T12:36:28;5.95;;;3.88;;
76059;SDS011;64759;52.220;5.170;2023-04-27T12:38:57;9.43;;;4.53;;
76059;SDS011;64759;52.220;5.170;2023-04-27T12:41:24;9.95;;;4.72;;
76059;SDS011;64759;52.220;5.170;2023-04-27T12:43:49;7.78;;;4.65;;
76059;SDS011;64759;52.220;5.170;2023-04-27T12:46:15;8.95;;;4.20;;
76059;SDS011;64759;52.220;5.170;2023-04-27T12:48:42;7.60;;;3.92;;
76059;SDS011;64759;52.220;5.170;2023-04-27T12:51:08;7.53;;;3.78;;
76059;SDS011;64759;52.220;5.170;2023-04-27T12:53:33;7.30;;;4.85;;
76059;SDS011;64759;52.220;5.170;2023-04-27T12:56:00;7.38;;;4.65;;
76059;SDS011;64759;52.220;5.170;2023-04-27T12:58:26;10.88;;;5.20;;
76059;SDS011;64759;52.220;5.170;2023-04-27T13:00:53;7.15;;;4.25;;
76059;SDS011;64759;52.220;5.170;2023-04-27T13:03:21;6.43;;;4.07;;
76059;SDS011;64759;52.220;5.170;2023-04-27T13:05:47;12.70;;;4.38;;
76059;SDS011;64759;52.220;5.170;2023-04-27T13:08:13;7.20;;;4.03;;
76059;SDS011;64759;52.220;5.170;2023-04-27T13:10:39;8.43;;;4.13;;
76059;SDS011;64759;52.220;5.170;2023-04-27T13:13:05;7.32;;;4.68;;
76059;SDS011;64759;52.220;5.170;2023-04-27T13:15:32;6.63;;;4.30;;
76059;SDS011;64759;52.220;5.170;2023-04-27T13:17:58;8.95;;;3.97;;
76059;SDS011;64759;52.220;5.170;2023-04-27T13:20:24;8.60;;;4.07;;
76059;SDS011;64759;52.220;5.170;2023-04-27T13:22:49;8.00;;;4.20;;
76059;SDS011;64759;52.220;5.170;2023-04-27T13:25:16;5.10;;;3.53;;
76059;SDS011;64759;52.220;5.170;2023-04-27T13:27:41;5.22;;;3.45;;
76059;SDS011;64759;52.220;5.170;2023-04-27T13:30:07;7.80;;;3.80;;
76059;SDS011;64759;52.220;5.170;2023-04-27T13:32:33;9.43;;;4.13;;
76059;SDS011;64759;52.220;5.170;2023-04-27T13:34:58;5.40;;;3.80;;
76059;SDS011;64759;52.220;5.170;2023-04-27T13:37:24;6.53;;;3.72;;
76059;SDS011;64759;52.220;5.170;2023-04-27T13:39:49;8.10;;;4.10;;
76059;SDS011;64759;52.220;5.170;2023-04-27T13:42:15;7.05;;;3.78;;
76059;SDS011;64759;52.220;5.170;2023-04-27T13:44:40;6.70;;;3.92;;
76059;SDS011;64759;52.220;5.170;2023-04-27T13:47:07;5.57;;;3.97;;
76059;SDS011;64759;52.220;5.170;2023-04-27T13:49:32;5.68;;;3.92;;
76059;SDS011;64759;52.220;5.170;2023-04-27T13:51:59;6.53;;;4.18;;
76059;SDS011;64759;52.220;5.170;2023-04-27T13:54:26;6.00;;;4.07;;
76059;SDS011;64759;52.220;5.170;2023-04-27T13:56:52;8.18;;;4.50;;
76059;SDS011;64759;52.220;5.170;2023-04-27T13:59:18;6.90;;;3.80;;
76059;SDS011;64759;52.220;5.170;2023-04-27T14:01:43;7.57;;;4.03;;
76059;SDS011;64759;52.220;5.170;2023-04-27T14:04:09;6.68;;;4.20;;
76059;SDS011;64759;52.220;5.170;2023-04-27T14:06:35;5.03;;;4.10;;
76059;SDS011;64759;52.220;5.170;2023-04-27T14:09:01;7.80;;;4.43;;
76059;SDS011;64759;52.220;5.170;2023-04-27T14:11:28;6.32;;;4.10;;
76059;SDS011;64759;52.220;5.170;2023-04-27T14:13:53;8.50;;;4.63;;
76059;SDS011;64759;52.220;5.170;2023-04-27T14:16:19;8.30;;;4.38;;
76059;SDS011;64759;52.220;5.170;2023-04-27T14:18:44;10.73;;;4.90;;
76059;SDS011;64759;52.220;5.170;2023-04-27T14:21:12;8.18;;;5.03;;
76059;SDS011;64759;52.220;5.170;2023-04-27T14:23:37;5.07;;;4.15;;
76059;SDS011;64759;52.220;5.170;2023-04-27T14:26:06;8.88;;;3.50;;
76059;SDS011;64759;52.220;5.170;2023-04-27T14:28:31;7.38;;;3.75;;
76059;SDS011;64759;52.220;5.170;2023-04-27T14:30:56;9.15;;;4.10;;
76059;SDS011;64759;52.220;5.170;2023-04-27T14:33:22;8.98;;;4.78;;
76059;SDS011;64759;52.220;5.170;2023-04-27T14:35:47;8.70;;;4.55;;
76059;SDS011;64759;52.220;5.170;2023-04-27T14:38:15;7.13;;;3.10;;
76059;SDS011;64759;52.220;5.170;2023-04-27T14:40:42;6.05;;;3.70;;
76059;SDS011;64759;52.220;5.170;2023-04-27T14:43:08;6.65;;;4.03;;
76059;SDS011;64759;52.220;5.170;2023-04-27T14:45:34;7.18;;;3.70;;
76059;SDS011;64759;52.220;5.170;2023-04-27T14:47:59;4.80;;;3.58;;
76059;SDS011;64759;52.220;5.170;2023-04-27T14:50:26;9.68;;;3.75;;
76059;SDS011;64759;52.220;5.170;2023-04-27T14:52:51;8.43;;;3.95;;
76059;SDS011;64759;52.220;5.170;2023-04-27T14:55:21;6.07;;;3.33;;
76059;SDS011;64759;52.220;5.170;2023-04-27T14:57:51;12.43;;;4.00;;
76059;SDS011;64759;52.220;5.170;2023-04-27T15:00:17;8.50;;;3.85;;
76059;SDS011;64759;52.220;5.170;2023-04-27T15:02:42;4.78;;;3.38;;
76059;SDS011;64759;52.220;5.170;2023-04-27T15:05:08;8.80;;;3.40;;